Racecast

Brady Huber

Temperance Bedford (MI) · 12 · SECMI D1MONROE · Compare head to head

Athlete rating 128.4 2017 XC season
Best race 125.5 XC
Races 43
Seasons 4 2014 — 2017

RankedNation #7935·MI #1031·MI D1 #679·SEC #81·Team #42 ?

Cross Country

2017 XC 121.1

Temperance Bedford (MI) · Grade 12

Date Meet Event Result Place Rating Difficulty PR/SR Flags
2017-10-28 Lake Erie Metro Park OFFICIAL 5000m 17:53.2 49th · 7th on team 124.7 +0.055
2017-10-19 Hudson Mills Metropark - OFFICIAL 5000m 17:37.4 13th · 1st on team 125.3 +0.036 ★CR CSR
2017-10-10 Indian Creek OFFICIAL 5000m 17:35.4 12th · 5th on team 125.5 +0.039 ★PR ★CR ★R SR CSR RSR
2017-10-07 Portage West MS 5000m 18:25.8 204th · 5th on team 120.8 +0.038 ★CR CSR
2017-09-30 Lake Erie Metro Park OFFICIAL 5000m 17:50.6 10th · 1st on team 124.3 +0.055 PR ★CR R SR CSR RSR
2017-09-22 Ella Sharp Park OFFICIAL 5000m 18:17.9 2nd · 1st on team 122.8 +0.038 ★CR R CSR RSR
2017-09-12 Hudson Mills Metropark - OFFICIAL 5000m 18:25.1 81st · 9th on team 119.4 +0.036 CR CSR
2017-09-09 Hedges Boyer Park 5000m 17:58.3 47th · 2nd on team 113.8 -0.036 PR ★CR SR CSR
2017-09-01 Oakland University 4000m 14:21.6 63rd · 9th on team 120.1 +0.054 ★PR ★CR SR CSR RSR
2017-08-26 Walsh Park 5000m 18:09.3 26th · 8th on team 114.7 -0.009 PR ★CR SR CSR RSR

2016 XC 117.3

Temperance Bedford (MI) · Grade 11

Date Meet Event Result Place Rating Difficulty PR/SR Flags
2016-10-29 Lake Erie Metro Park OFFICIAL 5000m 18:49 21st · 2nd on team 119.2 +0.055 CR CSR
2016-10-20 Hudson Mills Metropark - OFFICIAL 5000m 18:48.3 44th · 3rd on team 116.5 +0.036
2016-10-15 Hudson Mills Metropark - OFFICIAL 5000m 18:26.4 16th · 3rd on team 120.0 +0.036 PR CR SR CSR
2016-10-08 Portage West MS 5000m 18:41 125th · 5th on team 117.9 +0.038 PR CR SR CSR
2016-10-01 Pearson's Metro Park 5000m 18:47.4 9th · 5th on team 110.1 -0.022 PR ★CR SR CSR
2016-09-27 Pioneer HS 5000m 18:53.4 20th · 2nd on team 120.9 +0.067 ★CR CSR
2016-09-17 Springfield Oaks County Park OFFICIAL 5000m 20:13 133rd · 6th on team 115.1 +0.067 CSR
2016-09-13 Heritage Park (Adrian) OFFICIAL 5000m 18:49.1 12th · 1st on team 122.5 +0.084 PR ★CR R SR CSR RSR
2016-09-10 Hedges Boyer Park 5000m 19:02.8 218th · 7th on team 108.0 -0.036 CR SR CSR
2016-09-02 Oakland University 4000m 14:24.4 55th · 7th on team 121.2 +0.054 PR CR R SR CSR RSR
2016-08-25 Heritage Park (Adrian) OFFICIAL 5000m 19:23.3 2nd · 2nd on team 118.8 +0.084 CR R SR CSR RSR

2015 XC 111.6

Temperance Bedford (MI) · Grade 10

Date Meet Event Result Place Rating Difficulty PR/SR Flags
2015-10-31 Lake Erie Metro Park OFFICIAL 5000m 19:21.7 37th · 4th on team 114.8 +0.055 CR R CSR RSR
2015-10-22 Hudson Mills Metropark - OFFICIAL 5000m 19:07.7 75th · 4th on team 114.4 +0.036
2015-10-17 Hudson Mills Metropark - OFFICIAL 5000m 19:02.1 73rd · 6th on team 114.7 +0.036 PR CR R SR CSR RSR
2015-10-03 Pearson's Metro Park 5000m 19:52.1 4th · 4th on team 104.0 -0.022 CR CSR
2015-09-29 Indian Creek OFFICIAL 5000m 20:03.7 63rd · 7th on team 109.4 +0.039 CR CSR
2015-09-19 Springfield Oaks County Park OFFICIAL 5000m 19:47 44th · 6th on team 114.4 +0.067 ★CR R CSR RSR
2015-09-10 Munson Park 5000m 19:46.9 56th · 7th on team 112.9 +0.054 PR ★CR R SR CSR RSR
2015-09-04 Hillsdale College 5000m 20:33 21st · 15th on team 110.0 +0.070 ★CR R CSR RSR
2015-08-27 Heritage Park (Adrian) OFFICIAL 5000m 20:29.6 74th · 14th on team 109.7 +0.084 PR CR R SR CSR RSR

2014 XC 98.9

Temperance Bedford (MI) · Grade 9

Date Meet Event Result Place Rating Difficulty PR/SR Flags
2014-10-25 Lake Erie Metro Park OFFICIAL 5000m 20:57.2 78th · 7th on team 107.0 +0.055 PR CR R SR CSR RSR
2014-09-23 Huron Meadows Metropark OFFICIAL 5000m 21:09 70th · 3rd on team 106.4 +0.052 PR ★CR R SR CSR RSR
2014-09-09 Hudson Mills Metropark - OFFICIAL 5000m 22:43 129th · 8th on team 97.1 +0.036 PR CR R SR CSR RSR
2014-09-06 Hedges Boyer Park 5000m 22:59.2 204th · 7th on team 88.2 -0.036 PR CR SR CSR
2014-08-28 Heritage Park (Adrian) OFFICIAL 5000m 23:47.7 94th · 18th on team 95.7 +0.084 PR CR R SR CSR RSR

Track & Field

2017 TF 106.8

Temperance Bedford (MI) · Grade 11

Date Meet Event Result Place Rating Difficulty PR/SR Flags
2017-04-25 SEC Red: Bedford @ Skyline 800m 2:25.25 9th · 6th on team 104.0 -0.033
2017-04-25 SEC Red: Bedford @ Skyline 400m 58.04 10th · 8th on team -0.033 ★PR SR
2017-03-28 SEC Red: Bedford @ Pioneer 800m 2:19.09 8th · 3rd on team 109.5 -0.028 ★PR SR RSR

2016 TF 103.0

Temperance Bedford (MI) · Grade 10

Date Meet Event Result Place Rating Difficulty PR/SR Flags
2016-05-18 Eagle Boys Invitational 1600m 5:20.16 76th · 7th on team 106.0 -0.033 ★PR SR RSR
2016-05-18 Eagle Boys Invitational 100m 14.63 164th · 18th on team -0.033 ★PR SR
2016-05-03 SEC Tri: Huron/Skyline @ Bedford 3200m 11:53.66 9th · 5th on team 102.9 -0.033 ★PR SR RSR
2016-04-19 Saline @ Bedford 3200m 12:00.59 10th · 4th on team 102.5 -0.033 PR SR RSR
2016-04-12 SEC: Bedford @ Pioneer 1600m 5:40.28 19th · 8th on team 100.5 -0.028 PR SR RSR